Time;durP1;ratioP1;P1;durP2;ratioP2;P2;SDS_P1;SDS_P2;PMS_P1;PMS_P2;Temp;Humidity;BMP_temperature;BMP_pressure;BME280_temperature;BME280_humidity;BME280_pressure;Samples;Min_cycle;Max_cycle;Signal;HPM_P1;HPM_P2
2021/07/11 00:00:22;;;;;;;3.33;0.20;;;16.30;99.90;;;;;;5010481;28;20026;-75
2021/07/11 00:02:47;;;;;;;0.00;0.00;;;16.30;99.90;;;;;;5011611;28;20025;-75
2021/07/11 00:05:15;;;;;;;0.20;0.20;;;16.30;99.90;;;;;;5014913;28;20397;-75
2021/07/11 00:07:41;;;;;;;0.20;0.20;;;16.30;99.90;;;;;;4997319;28;20063;-75
2021/07/11 00:10:09;;;;;;;0.10;0.10;;;16.30;99.90;;;;;;5013886;28;20018;-75
2021/07/11 00:12:36;;;;;;;0.25;0.25;;;16.40;99.90;;;;;;5015020;28;20117;-74
2021/07/11 00:15:04;;;;;;;0.10;0.10;;;16.40;99.90;;;;;;5015127;28;20452;-75
2021/07/11 00:17:30;;;;;;;0.43;0.22;;;16.40;99.90;;;;;;5014858;28;20025;-74
2021/07/11 00:19:56;;;;;;;0.90;0.40;;;16.40;99.90;;;;;;5014933;28;20457;-75
2021/07/11 00:22:22;;;;;;;2.70;1.17;;;16.40;99.90;;;;;;5013573;28;20121;-75
2021/07/11 00:24:48;;;;;;;0.10;0.10;;;16.40;99.90;;;;;;5014781;28;20030;-74
2021/07/11 00:27:13;;;;;;;0.73;0.52;;;16.50;99.90;;;;;;5014694;28;20025;-75
2021/07/11 00:29:39;;;;;;;0.43;0.43;;;16.50;99.90;;;;;;5014704;28;20106;-74
2021/07/11 00:32:05;;;;;;;0.00;0.00;;;16.50;99.90;;;;;;5014804;28;20049;-75
2021/07/11 00:34:31;;;;;;;2.35;0.60;;;16.60;99.90;;;;;;4997043;28;20528;-75
2021/07/11 00:36:57;;;;;;;0.30;0.25;;;16.60;99.90;;;;;;5014701;28;20104;-75
2021/07/11 00:39:23;;;;;;;0.40;0.30;;;16.50;99.90;;;;;;5014533;28;20040;-75
2021/07/11 00:41:48;;;;;;;0.10;0.10;;;16.40;99.90;;;;;;5014562;28;20041;-75
2021/07/11 00:44:14;;;;;;;0.43;0.30;;;16.40;99.90;;;;;;5014339;28;20045;-76
2021/07/11 00:46:43;;;;;;;0.10;0.10;;;16.30;99.90;;;;;;5014500;28;20030;-75
2021/07/11 00:49:09;;;;;;;0.00;0.00;;;16.20;99.90;;;;;;5014208;28;20101;-74
2021/07/11 00:51:35;;;;;;;1.98;0.45;;;16.20;99.90;;;;;;5014014;28;20030;-75
2021/07/11 00:54:02;;;;;;;0.98;0.75;;;16.20;99.90;;;;;;5014337;28;20028;-75
2021/07/11 00:56:27;;;;;;;3.08;0.30;;;16.00;99.90;;;;;;5013147;28;20022;-75
2021/07/11 00:58:55;;;;;;;0.15;0.15;;;15.90;99.90;;;;;;5014118;28;20037;-75
2021/07/11 01:01:26;;;;;;;0.30;0.30;;;15.80;99.90;;;;;;5014124;28;20026;-75
2021/07/11 01:04:01;;;;;;;0.10;0.10;;;15.80;99.90;;;;;;5012929;28;20018;-75
2021/07/11 01:06:29;;;;;;;1.10;1.10;;;15.70;99.90;;;;;;5014085;28;20022;-75
2021/07/11 01:09:10;;;;;;;0.15;0.15;;;15.80;99.90;;;;;;4996385;28;20025;-75
2021/07/11 01:11:44;;;;;;;0.28;0.28;;;15.70;99.90;;;;;;5014025;28;20026;-74
2021/07/11 01:14:12;;;;;;;0.20;0.20;;;15.70;99.90;;;;;;5012480;28;20029;-75
2021/07/11 01:16:39;;;;;;;0.17;0.15;;;15.80;99.90;;;;;;5014146;28;20026;-75
2021/07/11 01:19:10;;;;;;;0.17;0.17;;;15.70;99.90;;;;;;5014625;28;20056;-75
2021/07/11 01:21:46;;;;;;;0.10;0.10;;;15.60;99.90;;;;;;5014317;28;20022;-75
2021/07/11 01:24:26;;;;;;;0.40;0.40;;;15.60;99.90;;;;;;5012627;28;20383;-75
2021/07/11 01:26:53;;;;;;;0.13;0.10;;;15.40;99.90;;;;;;5013842;28;20020;-75
2021/07/11 01:29:20;;;;;;;0.10;0.10;;;15.50;99.90;;;;;;5016150;28;20073;-77
2021/07/11 01:31:46;;;;;;;0.50;0.50;;;15.50;99.90;;;;;;5013834;28;20024;-73
2021/07/11 01:34:13;;;;;;;0.00;0.00;;;15.30;99.90;;;;;;5028938;28;20029;-75
2021/07/11 01:36:40;;;;;;;0.00;0.00;;;15.30;99.90;;;;;;5013599;28;20112;-75
2021/07/11 01:39:07;;;;;;;0.10;0.10;;;15.30;99.90;;;;;;5013298;28;20395;-74
2021/07/11 01:41:33;;;;;;;0.20;0.17;;;15.30;99.90;;;;;;5013439;28;20041;-75
2021/07/11 01:44:00;;;;;;;0.10;0.10;;;15.40;99.90;;;;;;5011907;28;20597;-74
2021/07/11 01:46:26;;;;;;;0.00;0.00;;;15.40;99.90;;;;;;5012157;28;20041;-74
2021/07/11 01:48:52;;;;;;;0.10;0.10;;;15.30;99.90;;;;;;5011819;28;20104;-75
2021/07/11 01:51:19;;;;;;;0.20;0.20;;;15.40;99.90;;;;;;5013348;28;20026;-75
2021/07/11 01:53:47;;;;;;;0.00;0.00;;;15.30;99.90;;;;;;5013223;28;20029;-75
2021/07/11 01:56:14;;;;;;;0.52;0.25;;;15.30;99.90;;;;;;5012037;28;20034;-74
2021/07/11 01:58:40;;;;;;;1.83;0.57;;;15.40;99.90;;;;;;5012961;28;20022;-74
2021/07/11 02:01:09;;;;;;;0.00;0.00;;;15.20;99.90;;;;;;5013244;28;20101;-75
2021/07/11 02:03:35;;;;;;;0.10;0.10;;;15.20;99.90;;;;;;5013042;28;20029;-75
2021/07/11 02:06:01;;;;;;;0.00;0.00;;;15.30;99.90;;;;;;5013053;28;20028;-75
2021/07/11 02:08:26;;;;;;;0.00;0.00;;;15.40;99.90;;;;;;5012839;28;20474;-75
2021/07/11 02:10:54;;;;;;;0.30;0.30;;;15.40;99.90;;;;;;5012966;28;20029;-74
2021/07/11 02:13:25;;;;;;;0.63;0.60;;;15.40;99.90;;;;;;5012760;28;20022;-74
2021/07/11 02:15:53;;;;;;;0.00;0.00;;;15.10;99.90;;;;;;5012915;28;20026;-74
2021/07/11 02:18:23;;;;;;;0.00;0.00;;;15.00;99.90;;;;;;4994980;28;20030;-75
2021/07/11 02:20:51;;;;;;;0.00;0.00;;;15.10;99.90;;;;;;5012981;28;20026;-75
2021/07/11 02:23:18;;;;;;;0.00;0.00;;;15.10;99.90;;;;;;5012744;28;20035;-75
2021/07/11 02:25:48;;;;;;;0.93;0.30;;;15.10;99.90;;;;;;5012236;28;20398;-75
2021/07/11 02:28:15;;;;;;;0.03;0.03;;;15.00;99.90;;;;;;5012245;28;20076;-74
2021/07/11 02:30:51;;;;;;;0.10;0.10;;;15.10;99.90;;;;;;5012639;28;20025;-75
2021/07/11 02:33:26;;;;;;;0.10;0.10;;;15.10;99.90;;;;;;5012656;28;20025;-75
2021/07/11 02:35:54;;;;;;;0.00;0.00;;;15.00;99.90;;;;;;5012619;28;20032;-74
2021/07/11 02:38:20;;;;;;;0.10;0.10;;;15.10;99.90;;;;;;5012448;28;20414;-74
2021/07/11 02:40:46;;;;;;;0.45;0.20;;;14.80;99.90;;;;;;5011045;28;20026;-75
2021/07/11 02:43:15;;;;;;;0.00;0.00;;;14.90;99.90;;;;;;4994682;28;20088;-75
2021/07/11 02:45:43;;;;;;;0.10;0.10;;;14.90;99.90;;;;;;4995049;28;20505;-74
2021/07/11 02:48:10;;;;;;;0.10;0.10;;;14.90;99.90;;;;;;5012212;28;20018;-75
2021/07/11 02:50:37;;;;;;;0.43;0.32;;;15.00;99.90;;;;;;5012384;28;20377;-75
2021/07/11 02:53:04;;;;;;;0.10;0.10;;;14.80;99.90;;;;;;5011129;28;20021;-75
2021/07/11 02:55:35;;;;;;;0.20;0.20;;;14.80;99.90;;;;;;5012330;28;20025;-75
2021/07/11 02:58:15;;;;;;;0.10;0.10;;;14.80;99.90;;;;;;5010969;28;20025;-75
2021/07/11 03:00:42;;;;;;;0.20;0.20;;;14.90;99.90;;;;;;5011016;28;20036;-75
2021/07/11 03:03:11;;;;;;;0.17;0.15;;;14.90;99.90;;;;;;5012183;28;20088;-74
2021/07/11 03:05:37;;;;;;;0.00;0.00;;;15.10;99.90;;;;;;5010975;28;20426;-75
2021/07/11 03:08:03;;;;;;;0.20;0.20;;;15.00;99.90;;;;;;5012093;28;20132;-75
2021/07/11 03:10:29;;;;;;;0.08;0.08;;;14.90;99.90;;;;;;5012324;28;20076;-75
2021/07/11 03:12:58;;;;;;;1.02;0.77;;;14.70;99.90;;;;;;5010825;28;20030;-74
2021/07/11 03:15:25;;;;;;;0.00;0.00;;;14.60;99.90;;;;;;5012284;28;20069;-74
2021/07/11 03:17:53;;;;;;;0.00;0.00;;;14.70;99.90;;;;;;5011910;28;20034;-75
2021/07/11 03:20:20;;;;;;;0.10;0.10;;;14.60;99.90;;;;;;5012082;28;20029;-74
2021/07/11 03:22:46;;;;;;;0.35;0.35;;;14.50;99.90;;;;;;5010937;28;20485;-74
2021/07/11 03:25:13;;;;;;;0.13;0.13;;;14.50;99.90;;;;;;5011961;28;20029;-75
2021/07/11 03:27:39;;;;;;;0.50;0.28;;;14.50;99.90;;;;;;5010514;28;20513;-74
2021/07/11 03:30:12;;;;;;;0.40;0.40;;;14.50;99.90;;;;;;4994315;28;20059;-75
2021/07/11 03:32:45;;;;;;;0.10;0.10;;;14.50;99.90;;;;;;5010689;28;20133;-74
2021/07/11 03:35:14;;;;;;;0.25;0.25;;;14.60;99.90;;;;;;5011960;28;20026;-75
2021/07/11 03:37:42;;;;;;;0.10;0.10;;;14.50;99.90;;;;;;5011510;28;20034;-74
2021/07/11 03:40:09;;;;;;;0.10;0.10;;;14.50;99.90;;;;;;5015749;28;20065;-74
2021/07/11 03:42:42;;;;;;;0.10;0.10;;;14.50;99.90;;;;;;5015602;28;20113;-74
2021/07/11 03:45:10;;;;;;;0.10;0.10;;;14.60;99.90;;;;;;5014273;28;20034;-74
2021/07/11 03:47:51;;;;;;;0.10;0.10;;;14.70;99.90;;;;;;5015462;28;20485;-75
2021/07/11 03:50:20;;;;;;;0.05;0.05;;;14.70;99.90;;;;;;5014343;28;20115;-75
2021/07/11 03:52:59;;;;;;;0.00;0.00;;;14.60;99.90;;;;;;5015430;28;20482;-75
2021/07/11 03:55:26;;;;;;;0.00;0.00;;;14.80;99.90;;;;;;5015577;28;20433;-75
2021/07/11 03:57:53;;;;;;;0.13;0.13;;;14.80;99.90;;;;;;5015233;28;20029;-74
2021/07/11 04:00:20;;;;;;;0.10;0.10;;;15.00;99.90;;;;;;5030729;28;20486;-75
2021/07/11 04:02:48;;;;;;;0.10;0.10;;;15.10;99.90;;;;;;5015249;28;20048;-74
2021/07/11 04:05:17;;;;;;;0.00;0.00;;;14.80;99.90;;;;;;5014052;28;20117;-75
2021/07/11 04:07:45;;;;;;;0.10;0.10;;;14.80;99.90;;;;;;5015103;28;20022;-75
2021/07/11 04:10:12;;;;;;;0.10;0.10;;;14.70;99.90;;;;;;5015176;28;20481;-75
2021/07/11 04:12:38;;;;;;;0.15;0.15;;;14.60;99.90;;;;;;5015086;28;20482;-75
2021/07/11 04:15:04;;;;;;;0.03;0.03;;;14.50;99.90;;;;;;5015107;28;20041;-74
2021/07/11 04:17:32;;;;;;;0.03;0.03;;;14.60;99.90;;;;;;5014848;28;20026;-75
2021/07/11 04:20:00;;;;;;;0.10;0.10;;;14.50;99.90;;;;;;5015026;28;20105;-75
2021/07/11 04:22:27;;;;;;;4.57;0.20;;;14.50;99.90;;;;;;5014820;28;20036;-75
2021/07/11 04:24:54;;;;;;;0.00;0.00;;;14.50;99.90;;;;;;5014909;28;20030;-74
2021/07/11 04:27:21;;;;;;;0.15;0.15;;;14.60;99.90;;;;;;5014713;28;20030;-75
2021/07/11 04:29:50;;;;;;;0.30;0.30;;;14.40;99.90;;;;;;5014914;28;20022;-74
2021/07/11 04:32:16;;;;;;;0.10;0.10;;;14.30;99.90;;;;;;5014690;28;20078;-74
2021/07/11 04:34:42;;;;;;;0.22;0.22;;;14.20;99.90;;;;;;5014859;28;20030;-74
2021/07/11 04:37:11;;;;;;;0.00;0.00;;;14.20;99.90;;;;;;5029973;28;20022;-75
2021/07/11 04:39:37;;;;;;;0.65;0.65;;;14.40;99.90;;;;;;5013153;28;20088;-75
2021/07/11 04:42:03;;;;;;;0.03;0.03;;;14.60;99.90;;;;;;5014691;28;20537;-75
2021/07/11 04:44:29;;;;;;;0.17;0.10;;;14.70;99.90;;;;;;5014307;28;20034;-75
2021/07/11 04:46:55;;;;;;;0.10;0.10;;;14.60;99.90;;;;;;5014478;28;20029;-74
2021/07/11 04:49:23;;;;;;;0.17;0.17;;;14.60;99.90;;;;;;5012524;28;20030;-75
2021/07/11 04:51:53;;;;;;;0.00;0.00;;;14.50;99.90;;;;;;5014413;28;20389;-75
2021/07/11 04:54:19;;;;;;;0.03;0.03;;;14.50;99.90;;;;;;5013063;28;20026;-75
2021/07/11 04:56:45;;;;;;;0.10;0.10;;;14.60;99.90;;;;;;5013115;28;20393;-76
2021/07/11 04:59:11;;;;;;;0.10;0.10;;;14.60;99.90;;;;;;5012976;28;20096;-75
2021/07/11 05:01:37;;;;;;;0.47;0.38;;;14.70;99.90;;;;;;5014291;28;20032;-75
2021/07/11 05:04:03;;;;;;;0.10;0.10;;;14.70;99.90;;;;;;5012935;28;20025;-75
2021/07/11 05:06:29;;;;;;;0.00;0.00;;;15.00;99.90;;;;;;5014238;28;20025;-75
2021/07/11 05:08:55;;;;;;;0.10;0.10;;;15.10;99.90;;;;;;5013923;28;20081;-75
2021/07/11 05:11:21;;;;;;;0.10;0.10;;;14.90;99.90;;;;;;5014097;28;20470;-75
2021/07/11 05:13:47;;;;;;;0.10;0.10;;;14.80;99.90;;;;;;5013986;28;20540;-75
2021/07/11 05:16:13;;;;;;;0.00;0.00;;;14.70;99.90;;;;;;5014047;28;20486;-74
2021/07/11 05:18:39;;;;;;;0.10;0.10;;;14.80;99.90;;;;;;5013778;28;20029;-74
2021/07/11 05:21:04;;;;;;;0.20;0.20;;;14.90;99.90;;;;;;5029140;28;20080;-74
2021/07/11 05:23:30;;;;;;;0.00;0.00;;;14.80;99.90;;;;;;5013743;28;20029;-74
2021/07/11 05:25:57;;;;;;;0.00;0.00;;;14.80;99.90;;;;;;4996154;28;20075;-75
2021/07/11 05:28:22;;;;;;;0.00;0.00;;;14.80;99.90;;;;;;5013697;28;20025;-75
2021/07/11 05:30:48;;;;;;;0.10;0.10;;;14.90;99.90;;;;;;5012460;28;20486;-75
2021/07/11 05:33:14;;;;;;;0.10;0.10;;;14.90;99.90;;;;;;5013596;28;20018;-75
2021/07/11 05:35:39;;;;;;;0.22;0.20;;;14.80;99.90;;;;;;5012309;28;20426;-74
2021/07/11 05:38:05;;;;;;;6.13;0.52;;;14.80;99.90;;;;;;5012071;28;20030;-75
2021/07/11 05:40:31;;;;;;;0.10;0.10;;;14.80;99.90;;;;;;5013625;28;20026;-75
2021/07/11 05:42:57;;;;;;;0.10;0.10;;;14.80;99.90;;;;;;5013397;28;20041;-75
2021/07/11 05:45:23;;;;;;;0.00;0.00;;;14.80;99.90;;;;;;5013382;28;20394;-75
2021/07/11 05:47:49;;;;;;;0.20;0.20;;;14.90;99.90;;;;;;5013206;28;20049;-74
2021/07/11 05:50:16;;;;;;;0.35;0.35;;;14.90;99.90;;;;;;5012176;28;20026;-75
2021/07/11 05:52:42;;;;;;;0.00;0.00;;;14.90;99.90;;;;;;5013282;28;20044;-75
2021/07/11 05:55:10;;;;;;;0.13;0.13;;;14.90;99.90;;;;;;5012074;28;20033;-75
2021/07/11 05:57:36;;;;;;;0.10;0.10;;;14.80;99.90;;;;;;4995410;28;20432;-74
2021/07/11 06:00:04;;;;;;;0.10;0.10;;;14.70;99.90;;;;;;5011910;28;20030;-75
2021/07/11 06:02:30;;;;;;;0.10;0.10;;;14.70;99.90;;;;;;5012771;28;20029;-75
2021/07/11 06:04:56;;;;;;;0.15;0.15;;;14.70;99.90;;;;;;5012998;28;20486;-74
2021/07/11 06:07:22;;;;;;;0.00;0.00;;;14.80;99.90;;;;;;5011607;28;20022;-75
2021/07/11 06:09:47;;;;;;;0.03;0.03;;;14.80;99.90;;;;;;5013069;28;20026;-75
2021/07/11 06:12:15;;;;;;;0.15;0.15;;;14.80;99.90;;;;;;5012953;28;20026;-75
2021/07/11 06:14:42;;;;;;;0.10;0.10;;;14.80;99.90;;;;;;5011616;28;20029;-75
2021/07/11 06:17:08;;;;;;;0.10;0.10;;;14.90;99.90;;;;;;5012909;28;20034;-75
2021/07/11 06:19:33;;;;;;;0.00;0.00;;;15.00;99.90;;;;;;5012700;28;20072;-75
2021/07/11 06:21:59;;;;;;;0.00;0.00;;;15.00;99.90;;;;;;5012782;28;20079;-75
2021/07/11 06:24:25;;;;;;;0.08;0.08;;;15.20;99.90;;;;;;5012766;28;20029;-75
2021/07/11 06:26:51;;;;;;;0.00;0.00;;;15.30;99.90;;;;;;5012756;28;20057;-75
2021/07/11 06:29:17;;;;;;;0.00;0.00;;;15.30;99.90;;;;;;5012528;28;20054;-75
2021/07/11 06:31:42;;;;;;;0.00;0.00;;;15.30;99.90;;;;;;5012680;28;20389;-75
2021/07/11 06:34:08;;;;;;;0.03;0.03;;;15.50;99.90;;;;;;5011412;28;20025;-75
2021/07/11 06:36:34;;;;;;;0.10;0.10;;;15.60;99.90;;;;;;5011236;28;20030;-75
2021/07/11 06:39:00;;;;;;;0.00;0.00;;;15.80;99.90;;;;;;5027641;28;20101;-75
2021/07/11 06:41:26;;;;;;;0.10;0.10;;;15.90;99.90;;;;;;5020813;28;20021;-75
2021/07/11 06:43:52;;;;;;;0.03;0.03;;;16.00;99.90;;;;;;5018813;28;20037;-74
2021/07/11 06:46:18;;;;;;;0.00;0.00;;;16.10;99.90;;;;;;5028497;28;20071;-75
2021/07/11 06:48:44;;;;;;;0.00;0.00;;;16.10;99.90;;;;;;5030154;28;20029;-75
2021/07/11 06:51:09;;;;;;;0.00;0.00;;;16.10;99.90;;;;;;4997755;28;20017;-74
2021/07/11 06:53:36;;;;;;;0.05;0.05;;;15.90;99.90;;;;;;5012320;28;20096;-75
2021/07/11 06:56:03;;;;;;;0.00;0.00;;;15.90;99.90;;;;;;5012284;28;20110;-75
2021/07/11 06:58:29;;;;;;;0.03;0.03;;;15.80;99.90;;;;;;5012028;28;20077;-74
2021/07/11 07:00:55;;;;;;;0.00;0.00;;;15.80;99.90;;;;;;5009039;28;20026;-75
2021/07/11 07:03:21;;;;;;;0.10;0.10;;;15.90;99.90;;;;;;5014620;28;20393;-75
2021/07/11 07:05:47;;;;;;;0.10;0.10;;;15.80;99.90;;;;;;5026323;28;20029;-75
2021/07/11 07:08:13;;;;;;;0.10;0.10;;;15.80;99.90;;;;;;5027545;28;20053;-75
2021/07/11 07:10:39;;;;;;;0.00;0.00;;;15.70;99.90;;;;;;5010808;28;20022;-75
2021/07/11 07:13:05;;;;;;;1.10;0.65;;;15.70;99.90;;;;;;5015604;28;20133;-75
2021/07/11 07:15:31;;;;;;;0.00;0.00;;;15.60;99.90;;;;;;5031309;28;20026;-75
2021/07/11 07:17:57;;;;;;;0.00;0.00;;;15.60;99.90;;;;;;5030876;28;20060;-75
2021/07/11 07:20:22;;;;;;;0.10;0.10;;;15.80;99.90;;;;;;5035824;28;20025;-75
2021/07/11 07:22:48;;;;;;;0.00;0.00;;;16.00;99.90;;;;;;5035760;28;20029;-75
2021/07/11 07:25:17;;;;;;;0.03;0.03;;;16.10;99.90;;;;;;5027152;28;20047;-75
2021/07/11 07:27:44;;;;;;;0.00;0.00;;;16.10;99.90;;;;;;5015861;28;20529;-75
2021/07/11 07:30:15;;;;;;;0.08;0.08;;;16.10;99.90;;;;;;5015902;28;20462;-75
2021/07/11 07:32:42;;;;;;;0.10;0.10;;;16.10;99.90;;;;;;5015968;28;20102;-75
2021/07/11 07:35:09;;;;;;;0.00;0.00;;;16.20;99.90;;;;;;5015099;28;20050;-75
2021/07/11 07:37:35;;;;;;;0.10;0.10;;;16.30;99.90;;;;;;5014338;28;20433;-74
2021/07/11 07:40:04;;;;;;;0.10;0.10;;;16.40;99.90;;;;;;5014627;28;20088;-75
2021/07/11 07:42:30;;;;;;;0.10;0.10;;;16.40;99.90;;;;;;5031088;28;20457;-75
2021/07/11 07:44:55;;;;;;;0.00;0.00;;;16.50;99.90;;;;;;5014316;28;20034;-75
2021/07/11 07:47:21;;;;;;;0.10;0.10;;;16.40;99.90;;;;;;5015296;28;20022;-75
2021/07/11 07:49:47;;;;;;;0.17;0.17;;;16.40;99.90;;;;;;5014320;28;20061;-74
2021/07/11 07:52:13;;;;;;;0.05;0.05;;;16.20;99.90;;;;;;5030730;28;20441;-74
2021/07/11 07:54:40;;;;;;;0.10;0.10;;;16.20;99.90;;;;;;5034179;28;20025;-75
2021/07/11 07:57:05;;;;;;;0.10;0.10;;;16.10;99.90;;;;;;5035160;28;20029;-75
2021/07/11 07:59:31;;;;;;;0.10;0.10;;;16.20;99.90;;;;;;5018388;28;20029;-75
2021/07/11 08:01:57;;;;;;;0.10;0.10;;;16.40;99.90;;;;;;5014927;28;20030;-75
2021/07/11 08:04:22;;;;;;;0.10;0.10;;;16.40;99.90;;;;;;5030324;28;20018;-74
2021/07/11 08:06:49;;;;;;;0.28;0.28;;;16.60;99.90;;;;;;5015203;28;20030;-75
2021/07/11 08:09:16;;;;;;;0.10;0.10;;;16.50;99.90;;;;;;5014950;28;20390;-75
2021/07/11 08:11:43;;;;;;;0.10;0.10;;;16.60;99.90;;;;;;5013838;28;20363;-76
2021/07/11 08:14:09;;;;;;;0.10;0.10;;;16.70;99.90;;;;;;5015045;28;20050;-75
2021/07/11 08:16:35;;;;;;;0.00;0.00;;;16.80;99.90;;;;;;5015124;28;20421;-76
2021/07/11 08:19:01;;;;;;;0.00;0.00;;;17.00;99.90;;;;;;5013468;28;20120;-75
2021/07/11 08:21:26;;;;;;;0.10;0.10;;;17.00;99.90;;;;;;5015021;28;20099;-75
2021/07/11 08:23:52;;;;;;;0.10;0.10;;;17.00;99.90;;;;;;5028661;28;20022;-75
2021/07/11 08:26:18;;;;;;;0.00;0.00;;;17.10;99.90;;;;;;5016648;28;20382;-75
2021/07/11 08:28:44;;;;;;;0.10;0.10;;;17.10;99.90;;;;;;5020471;28;20087;-75
2021/07/11 08:34:51;;;;;;;0.10;0.10;;;17.20;99.90;;;;;;5063434;28;20243;-94
2021/07/11 08:39:55;;;;;;;0.00;0.00;;;17.20;99.90;;;;;;5053261;28;20045;-78
2021/07/11 08:42:23;;;;;;;0.10;0.10;;;17.30;99.90;;;;;;5040340;28;20035;-77
2021/07/11 08:44:50;;;;;;;0.10;0.10;;;17.40;99.90;;;;;;5059292;28;20060;-78
2021/07/11 08:47:17;;;;;;;0.10;0.10;;;17.40;99.90;;;;;;5058485;28;20020;-77
2021/07/11 08:49:43;;;;;;;0.00;0.00;;;17.40;99.90;;;;;;5010550;28;20022;-78
2021/07/11 08:52:08;;;;;;;0.10;0.10;;;17.50;99.90;;;;;;5038387;28;20056;-77
2021/07/11 08:54:36;;;;;;;0.10;0.10;;;17.60;99.90;;;;;;5038710;28;20033;-77
2021/07/11 08:57:09;;;;;;;0.10;0.10;;;17.60;99.90;;;;;;5037475;28;20106;-78
2021/07/11 08:59:36;;;;;;;0.10;0.10;;;17.50;99.90;;;;;;5019951;28;20022;-78
2021/07/11 09:02:02;;;;;;;0.00;0.00;;;17.70;99.90;;;;;;5035785;28;20049;-77
2021/07/11 09:04:38;;;;;;;0.10;0.10;;;18.00;99.90;;;;;;5036912;28;20555;-78
2021/07/11 09:07:05;;;;;;;0.10;0.10;;;18.10;99.90;;;;;;5039661;28;20018;-77
2021/07/11 09:09:37;;;;;;;0.10;0.10;;;18.40;99.90;;;;;;5037914;28;20035;-77
2021/07/11 09:12:08;;;;;;;0.10;0.10;;;18.60;99.90;;;;;;5037976;28;20377;-78
2021/07/11 09:14:41;;;;;;;0.10;0.10;;;18.60;99.90;;;;;;5037098;28;20124;-78
2021/07/11 09:17:08;;;;;;;0.05;0.05;;;18.50;99.90;;;;;;5038405;28;20536;-77
2021/07/11 09:19:36;;;;;;;0.10;0.10;;;18.70;99.90;;;;;;5038926;28;20029;-78
2021/07/11 09:22:17;;;;;;;0.00;0.00;;;19.40;99.90;;;;;;5037249;28;20033;-78
2021/07/11 09:25:01;;;;;;;0.10;0.10;;;19.70;99.90;;;;;;5021249;28;20415;-78
2021/07/11 09:27:30;;;;;;;0.10;0.10;;;19.60;99.90;;;;;;5039334;28;20026;-77
2021/07/11 09:30:01;;;;;;;0.10;0.10;;;19.50;99.90;;;;;;5039009;28;20152;-77
2021/07/11 09:32:32;;;;;;;0.20;0.20;;;19.80;99.90;;;;;;5037992;28;20487;-78
2021/07/11 09:35:08;;;;;;;0.10;0.10;;;19.70;99.90;;;;;;5039291;28;20652;-78
2021/07/11 09:37:37;;;;;;;0.10;0.10;;;19.70;99.90;;;;;;5038713;28;20039;-78
2021/07/11 09:40:05;;;;;;;0.43;0.30;;;19.40;99.90;;;;;;5049296;28;20029;-77
2021/07/11 09:42:37;;;;;;;0.10;0.10;;;18.80;99.90;;;;;;5040664;28;20025;-77
2021/07/11 09:45:06;;;;;;;0.10;0.10;;;18.80;99.90;;;;;;5058136;28;20025;-77
2021/07/11 09:47:32;;;;;;;0.10;0.10;;;19.00;99.90;;;;;;5040812;28;20025;-77
2021/07/11 09:50:09;;;;;;;0.10;0.10;;;19.10;99.90;;;;;;5040876;28;20025;-77
2021/07/11 09:52:38;;;;;;;0.10;0.10;;;19.30;99.90;;;;;;5041222;28;20021;-77
2021/07/11 09:55:12;;;;;;;0.10;0.10;;;19.40;99.90;;;;;;5069042;22;20056;-72
2021/07/11 09:57:39;;;;;;;0.15;0.15;;;19.40;99.90;;;;;;5073609;28;20020;-74
2021/07/11 10:00:09;;;;;;;0.10;0.10;;;19.60;99.90;;;;;;5073413;28;20024;-75
2021/07/11 10:02:34;;;;;;;8.10;0.57;;;19.50;99.90;;;;;;5073201;28;20020;-74
2021/07/11 10:05:00;;;;;;;0.10;0.10;;;19.40;99.90;;;;;;5073138;28;20380;-74
2021/07/11 10:07:26;;;;;;;0.10;0.10;;;19.50;99.90;;;;;;5071806;28;20059;-73
2021/07/11 10:09:52;;;;;;;0.10;0.10;;;19.70;99.90;;;;;;5071638;28;20031;-74
2021/07/11 10:12:17;;;;;;;0.10;0.10;;;20.40;99.90;;;;;;5072478;28;20437;-74
2021/07/11 10:14:43;;;;;;;0.40;0.17;;;20.80;99.90;;;;;;5072523;28;20025;-74
2021/07/11 10:17:09;;;;;;;0.10;0.10;;;20.80;99.90;;;;;;5071079;28;20036;-73
2021/07/11 10:19:35;;;;;;;0.10;0.10;;;20.80;99.90;;;;;;5071177;28;20033;-73
2021/07/11 10:22:12;;;;;;;0.00;0.00;;;21.40;99.90;;;;;;5072191;28;20055;-73
2021/07/11 10:24:43;;;;;;;0.20;0.20;;;21.70;98.50;;;;;;5072635;28;20024;-73
2021/07/11 10:27:22;;;;;;;0.10;0.10;;;21.30;96.60;;;;;;5071254;28;20020;-73
2021/07/11 10:29:50;;;;;;;0.00;0.00;;;20.90;97.10;;;;;;5072295;28;20103;-73
2021/07/11 10:32:26;;;;;;;0.10;0.10;;;20.70;99.90;;;;;;5071845;28;20147;-72
2021/07/11 10:34:52;;;;;;;0.20;0.20;;;20.60;99.90;;;;;;5072096;28;20028;-73
2021/07/11 10:37:22;;;;;;;0.10;0.10;;;20.50;99.90;;;;;;5072101;28;20025;-73
2021/07/11 10:40:09;;;;;;;0.10;0.10;;;20.50;99.90;;;;;;5072053;28;20028;-73
2021/07/11 10:42:35;;;;;;;0.10;0.10;;;20.50;99.90;;;;;;5071880;28;20027;-73
2021/07/11 10:45:13;;;;;;;0.10;0.10;;;20.50;99.90;;;;;;5053780;28;20029;-73
2021/07/11 10:47:40;;;;;;;0.85;0.30;;;20.80;99.90;;;;;;5070330;28;20540;-73
2021/07/11 10:50:21;;;;;;;0.10;0.10;;;21.00;97.10;;;;;;5071928;28;20052;-73
2021/07/11 10:52:47;;;;;;;0.10;0.10;;;21.10;99.00;;;;;;5071755;28;20423;-73
2021/07/11 10:55:14;;;;;;;0.00;0.00;;;21.30;99.90;;;;;;5071826;28;20036;-73
2021/07/11 10:57:40;;;;;;;0.10;0.10;;;21.50;98.20;;;;;;5070589;28;20028;-73
2021/07/11 11:00:27;;;;;;;0.00;0.00;;;21.80;96.70;;;;;;5071777;28;20032;-73
2021/07/11 11:02:55;;;;;;;0.05;0.05;;;21.60;96.10;;;;;;5071549;28;20039;-73
2021/07/11 11:05:25;;;;;;;0.30;0.30;;;21.30;96.80;;;;;;5071815;28;20028;-73
2021/07/11 11:08:11;;;;;;;0.20;0.20;;;20.90;97.80;;;;;;5071779;28;20021;-73
2021/07/11 11:10:39;;;;;;;0.03;0.03;;;20.70;99.50;;;;;;5071755;28;20024;-73
2021/07/11 11:13:20;;;;;;;0.10;0.10;;;20.30;99.70;;;;;;5071703;28;20500;-73
2021/07/11 11:15:51;;;;;;;0.20;0.20;;;20.20;99.90;;;;;;5071684;28;20036;-73
2021/07/11 11:18:39;;;;;;;0.10;0.10;;;20.20;99.90;;;;;;5071703;28;20476;-74
2021/07/11 11:21:12;;;;;;;0.10;0.10;;;20.30;99.90;;;;;;5071932;28;20032;-73
2021/07/11 11:23:42;;;;;;;0.15;0.15;;;20.40;99.70;;;;;;5071529;28;20025;-73
2021/07/11 11:26:10;;;;;;;0.00;0.00;;;20.50;99.80;;;;;;5071584;28;20074;-74
2021/07/11 11:28:41;;;;;;;0.00;0.00;;;20.40;99.90;;;;;;5071513;28;20379;-73
2021/07/11 11:31:11;;;;;;;0.10;0.10;;;20.40;99.90;;;;;;5070305;28;20021;-73
2021/07/11 11:33:53;;;;;;;0.70;0.68;;;20.40;99.90;;;;;;5070158;28;20267;-73
2021/07/11 11:36:21;;;;;;;0.10;0.10;;;20.20;99.90;;;;;;5071645;28;20016;-73
2021/07/11 11:38:47;;;;;;;0.10;0.10;;;20.10;99.90;;;;;;5071316;28;20016;-73
2021/07/11 11:41:14;;;;;;;0.10;0.10;;;20.00;99.90;;;;;;5071212;28;20032;-73
2021/07/11 11:43:41;;;;;;;0.20;0.20;;;20.20;99.90;;;;;;5070051;28;20024;-73
2021/07/11 11:46:08;;;;;;;0.00;0.00;;;20.50;99.90;;;;;;5071560;28;20102;-73
2021/07/11 11:48:35;;;;;;;0.20;0.20;;;21.00;99.90;;;;;;5071277;28;20515;-73
2021/07/11 11:51:05;;;;;;;0.30;0.30;;;21.00;98.40;;;;;;5071337;28;20024;-73
2021/07/11 11:53:41;;;;;;;1.08;0.68;;;21.00;98.50;;;;;;5071198;28;20464;-73
2021/07/11 11:56:11;;;;;;;0.30;0.25;;;21.20;98.10;;;;;;5071372;28;20033;-73
2021/07/11 11:58:38;;;;;;;0.22;0.22;;;20.80;97.30;;;;;;5071139;28;20024;-73
2021/07/11 12:01:06;;;;;;;0.10;0.10;;;20.50;98.10;;;;;;5075258;28;20483;-73
2021/07/11 12:03:36;;;;;;;0.63;0.13;;;20.30;98.90;;;;;;5074904;28;20407;-73
2021/07/11 12:06:06;;;;;;;0.22;0.22;;;20.20;99.90;;;;;;5074958;28;20392;-74
2021/07/11 12:08:40;;;;;;;0.28;0.28;;;19.90;99.90;;;;;;5075005;28;20383;-74
2021/07/11 12:11:08;;;;;;;1.20;0.30;;;19.80;99.90;;;;;;5074720;28;20016;-74
2021/07/11 12:13:34;;;;;;;0.00;0.00;;;19.80;99.90;;;;;;5073547;28;20463;-74
2021/07/11 12:16:09;;;;;;;0.35;0.30;;;19.70;99.90;;;;;;5074408;28;20099;-74
2021/07/11 12:18:44;;;;;;;0.00;0.00;;;19.60;99.90;;;;;;5074660;28;20029;-73
2021/07/11 12:21:10;;;;;;;0.10;0.10;;;19.50;99.90;;;;;;5074485;28;20028;-74
2021/07/11 12:23:36;;;;;;;0.10;0.10;;;19.50;99.90;;;;;;5074377;28;20020;-74
2021/07/11 12:26:05;;;;;;;0.00;0.00;;;19.60;99.90;;;;;;5076539;28;20383;-72
2021/07/11 12:28:32;;;;;;;0.10;0.10;;;19.50;99.90;;;;;;5074992;28;20024;-73
2021/07/11 12:30:58;;;;;;;4.30;1.08;;;19.40;99.90;;;;;;5074203;28;20032;-73
2021/07/11 12:33:30;;;;;;;0.10;0.10;;;19.40;99.90;;;;;;5073157;28;20020;-73
2021/07/11 12:35:59;;;;;;;0.10;0.10;;;19.40;99.90;;;;;;5074508;28;20031;-73
2021/07/11 12:38:33;;;;;;;0.28;0.20;;;19.50;99.90;;;;;;5074435;28;20032;-73
2021/07/11 12:41:01;;;;;;;0.10;0.10;;;19.70;99.90;;;;;;5056158;28;20322;-73
2021/07/11 12:43:33;;;;;;;0.00;0.00;;;19.70;99.90;;;;;;5054248;28;20021;-73
2021/07/11 12:46:07;;;;;;;0.10;0.10;;;19.80;99.90;;;;;;5052755;28;20121;-73
2021/07/11 12:48:37;;;;;;;0.40;0.40;;;19.70;99.90;;;;;;5036325;28;20053;-73
2021/07/11 12:51:14;;;;;;;0.10;0.10;;;19.60;99.90;;;;;;5052514;28;20507;-73
2021/07/11 12:53:40;;;;;;;0.80;0.40;;;19.50;99.90;;;;;;5053965;28;20025;-73
2021/07/11 12:56:05;;;;;;;0.20;0.20;;;19.40;99.90;;;;;;5053886;28;20103;-73
2021/07/11 12:58:42;;;;;;;0.10;0.10;;;19.40;99.90;;;;;;5054062;28;20095;-75